Map

Track Data

SID SEASON NUMBER BASIN SUBBASIN NAME ISO_TIME NATURE LAT LON WMO_WIND WMO_PRES WMO_AGENCY TRACK_TYPE DIST2LAND LANDFALL IFLAG USA_AGENCY USA_ATCF_ID USA_LAT USA_LON USA_RECORD USA_STATUS USA_WIND USA_PRES USA_SSHS USA_R34_NE USA_R34_SE USA_R34_SW USA_R34_NW USA_R50_NE USA_R50_SE USA_R50_SW USA_R50_NW USA_R64_NE USA_R64_SE USA_R64_SW USA_R64_NW USA_POCI USA_ROCI USA_RMW USA_EYE TOKYO_LAT TOKYO_LON TOKYO_GRADE TOKYO_WIND TOKYO_PRES TOKYO_R50_DIR TOKYO_R50_LONG TOKYO_R50_SHORT TOKYO_R30_DIR TOKYO_R30_LONG TOKYO_R30_SHORT TOKYO_LAND CMA_LAT CMA_LON CMA_CAT CMA_WIND CMA_PRES HKO_LAT HKO_LON HKO_CAT HKO_WIND HKO_PRES NEWDELHI_LAT NEWDELHI_LON NEWDELHI_GRADE NEWDELHI_WIND NEWDELHI_PRES NEWDELHI_CI NEWDELHI_DP NEWDELHI_POCI REUNION_LAT REUNION_LON REUNION_TYPE REUNION_WIND REUNION_PRES REUNION_TNUM REUNION_CI REUNION_RMW REUNION_R34_NE REUNION_R34_SE REUNION_R34_SW REUNION_R34_NW REUNION_R50_NE REUNION_R50_SE REUNION_R50_SW REUNION_R50_NW REUNION_R64_NE REUNION_R64_SE REUNION_R64_SW REUNION_R64_NW BOM_LAT BOM_LON BOM_TYPE BOM_WIND BOM_PRES BOM_TNUM BOM_CI BOM_RMW BOM_R34_NE BOM_R34_SE BOM_R34_SW BOM_R34_NW BOM_R50_NE BOM_R50_SE BOM_R50_SW BOM_R50_NW BOM_R64_NE BOM_R64_SE BOM_R64_SW BOM_R64_NW BOM_ROCI BOM_POCI BOM_EYE BOM_POS_METHOD BOM_PRES_METHOD NADI_LAT NADI_LON NADI_CAT NADI_WIND NADI_PRES WELLINGTON_LAT WELLINGTON_LON WELLINGTON_WIND WELLINGTON_PRES DS824_LAT DS824_LON DS824_STAGE DS824_WIND DS824_PRES TD9636_LAT TD9636_LON TD9636_STAGE TD9636_WIND TD9636_PRES TD9635_LAT TD9635_LON TD9635_WIND TD9635_PRES TD9635_ROCI NEUMANN_LAT NEUMANN_LON NEUMANN_CLASS NEUMANN_WIND NEUMANN_PRES MLC_LAT MLC_LON MLC_CLASS MLC_WIND MLC_PRES USA_GUST BOM_GUST BOM_GUST_PER REUNION_GUST REUNION_GUST_PER USA_SEAHGT USA_SEARAD_NE USA_SEARAD_SE USA_SEARAD_SW USA_SEARAD_NW STORM_SPEED STORM_DIR
1901070S10422 1901 15 SI MM NOT_NAMED 1901-03-10 18:00:00 NR -10.3000 61.6000 main 1173 1170 __________O___ -1 -10.3000 61.6000 7 3 257
1901070S10422 1901 15 SI MM NOT_NAMED 1901-03-10 21:00:00 NR -10.3297 61.4718 main 1170 1152 __________P___ -1 -10.3297 61.4718 7 3 255
1901070S10422 1901 15 SI MM NOT_NAMED 1901-03-11 00:00:00 NR -10.3675 61.3349 main 1152 1148 __________P___ -1 -10.3675 61.3349 7 3 252
1901070S10422 1901 15 SI MM NOT_NAMED 1901-03-11 03:00:00 NR -10.4216 61.1806 main 1148 1131 __________P___ -1 -10.4216 61.1806 7 4 248
1901070S10422 1901 15 SI MM NOT_NAMED 1901-03-11 06:00:00 NR -10.5000 61.0000 main 1131 1113 __________O___ -1 -10.5000 61.0000 7 4 244
1901070S10422 1901 15 SI MM NOT_NAMED 1901-03-11 09:00:00 NR -10.6075 60.7869 main 1113 1097 __________P___ -1 -10.6075 60.7869 7 5 242
1901070S10422 1901 15 SI MM NOT_NAMED 1901-03-11 12:00:00 NR -10.7350 60.5451 main 1094 1066 __________P___ -1 -10.7350 60.5451 7 6 242
1901070S10422 1901 15 SI MM NOT_NAMED 1901-03-11 15:00:00 NR -10.8700 60.2807 main 1066 1047 __________P___ -1 -10.8700 60.2807 7 6 244
1901070S10422 1901 15 SI MM NOT_NAMED 1901-03-11 18:00:00 NR -11.0000 60.0000 main 1047 1029 __________O___ -1 -11.0000 60.0000 7 6 248
1901070S10422 1901 15 SI MM NOT_NAMED 1901-03-11 21:00:00 NR -11.0990 59.7183 main 1029 1012 __________P___ -1 -11.0990 59.7183 7 6 251
1901070S10422 1901 15 SI MM NOT_NAMED 1901-03-12 00:00:00 NR -11.1924 59.4223 main 1012 996 __________P___ -1 -11.1924 59.4223 7 6 252
1901070S10422 1901 15 SI MM NOT_NAMED 1901-03-12 03:00:00 NR -11.2896 59.1151 main 996 980 __________P___ -1 -11.2896 59.1151 7 6 251
1901070S10422 1901 15 SI MM NOT_NAMED 1901-03-12 06:00:00 NR -11.4000 58.8000 main 980 947 __________O___ -1 -11.4000 58.8000 7 7 248
1901070S10422 1901 15 SI MM NOT_NAMED 1901-03-12 09:00:00 NR -11.5396 58.4863 main 947 909 __________P___ -1 -11.5396 58.4863 7 7 245
1901070S10422 1901 15 SI MM NOT_NAMED 1901-03-12 12:00:00 NR -11.6924 58.1650 main 909 875 __________P___ -1 -11.6924 58.1650 7 7 244
1901070S10422 1901 15 SI MM NOT_NAMED 1901-03-12 15:00:00 NR -11.8489 57.8362 main 864 827 __________P___ -1 -11.8489 57.8362 7 7 245
1901070S10422 1901 15 SI MM NOT_NAMED 1901-03-12 18:00:00 NR -12.0000 57.5000 main 827 793 __________O___ -1 -12.0000 57.5000 7 7 248
1901070S10422 1901 15 SI MM NOT_NAMED 1901-03-12 21:00:00 NR -12.1198 57.1650 main 793 748 __________P___ -1 -12.1198 57.1650 7 7 251
1901070S10422 1901 15 SI MM NOT_NAMED 1901-03-13 00:00:00 NR -12.2348 56.8221 main 748 713 __________P___ -1 -12.2348 56.8221 7 7 251
1901070S10422 1901 15 SI MM NOT_NAMED 1901-03-13 03:00:00 NR -12.3573 56.4681 main 711 666 __________P___ -1 -12.3573 56.4681 7 8 249
1901070S10422 1901 15 SI MM NOT_NAMED 1901-03-13 06:00:00 NR -12.5000 56.1000 main 666 618 __________O___ -1 -12.5000 56.1000 7 8 246
1901070S10422 1901 15 SI MM NOT_NAMED 1901-03-13 09:00:00 NR -12.6823 55.7225 main 618 582 __________P___ -1 -12.6823 55.7225 7 8 243
1901070S10422 1901 15 SI MM NOT_NAMED 1901-03-13 12:00:00 NR -12.8847 55.3300 main 571 525 __________P___ -1 -12.8847 55.3300 7 9 242
1901070S10422 1901 15 SI MM NOT_NAMED 1901-03-13 15:00:00 NR -13.0948 54.9225 main 525 479 __________P___ -1 -13.0948 54.9225 7 9 243
1901070S10422 1901 15 SI MM NOT_NAMED 1901-03-13 18:00:00 NR -13.3000 54.5000 main 479 432 __________O___ -1 -13.3000 54.5000 7 10 245
1901070S10422 1901 15 SI MM NOT_NAMED 1901-03-13 21:00:00 NR -13.4986 54.0361 main 422 373 __________P___ -1 -13.4986 54.0361 7 10 247
1901070S10422 1901 15 SI MM NOT_NAMED 1901-03-14 00:00:00 NR -13.6878 53.5628 main 373 320 __________P___ -1 -13.6878 53.5628 7 10 248
1901070S10422 1901 15 SI MM NOT_NAMED 1901-03-14 03:00:00 NR -13.8580 53.1080 main 315 272 __________P___ -1 -13.8580 53.1080 7 9 250
1901070S10422 1901 15 SI MM NOT_NAMED 1901-03-14 06:00:00 NR -14.0000 52.7000 main 272 238 __________O___ -1 -14.0000 52.7000 7 7 251
1901070S10422 1901 15 SI MM NOT_NAMED 1901-03-14 09:00:00 NR -14.0950 52.3904 main 238 205 __________P___ -1 -14.0950 52.3904 7 6 254
1901070S10422 1901 15 SI MM NOT_NAMED 1901-03-14 12:00:00 NR -14.1642 52.1269 main 205 187 __________P___ -1 -14.1642 52.1269 7 5 255
1901070S10422 1901 15 SI MM NOT_NAMED 1901-03-14 15:00:00 NR -14.2263 51.8749 main 187 154 __________P___ -1 -14.2263 51.8749 7 5 255
1901070S10422 1901 15 SI MM NOT_NAMED 1901-03-14 18:00:00 NR -14.3000 51.6000 main 154 120 __________O___ -1 -14.3000 51.6000 7 6 254
1901070S10422 1901 15 SI MM NOT_NAMED 1901-03-14 21:00:00 NR -14.3983 51.2657 main 120 76 __________P___ -1 -14.3983 51.2657 7 7 253
1901070S10422 1901 15 SI MM NOT_NAMED 1901-03-15 00:00:00 NR -14.5123 50.9021 main 76 32 __________P___ -1 -14.5123 50.9021 7 8 251
1901070S10422 1901 15 SI MM NOT_NAMED 1901-03-15 03:00:00 NR -14.6451 50.5125 main 32 0 __________P___ -1 -14.6451 50.5125 7 8 250
1901070S10422 1901 15 SI MM NOT_NAMED 1901-03-15 06:00:00 NR -14.8000 50.1000 main 0 0 __________O___ -1 -14.8000 50.1000 7 9 247
1901070S10422 1901 15 SI MM NOT_NAMED 1901-03-15 09:00:00 NR -14.9823 49.6797 main 0 0 __________P___ -1 -14.9823 49.6797 7 9 245
1901070S10422 1901 15 SI MM NOT_NAMED 1901-03-15 12:00:00 NR -15.1847 49.2375 main 0 0 __________P___ -1 -15.1847 49.2375 7 10 245
1901070S10422 1901 15 SI MM NOT_NAMED 1901-03-15 15:00:00 NR -15.3947 48.7765 main 0 0 __________P___ -1 -15.3947 48.7765 7 10 245
1901070S10422 1901 15 SI MM NOT_NAMED 1901-03-15 18:00:00 NR -15.6000 48.3000 main 0 0 __________O___ -1 -15.6000 48.3000 7 10 247
1901070S10422 1901 15 SI MM NOT_NAMED 1901-03-15 21:00:00 NR -15.7908 47.8112 main 0 0 __________P___ -1 -15.7908 47.8112 7 10 249
1901070S10422 1901 15 SI MM NOT_NAMED 1901-03-16 00:00:00 NR -15.9684 47.3130 main 0 0 __________P___ -1 -15.9684 47.3130 7 10 250
1901070S10422 1901 15 SI MM NOT_NAMED 1901-03-16 03:00:00 NR -16.1368 46.8083 main 0 0 __________P___ -1 -16.1368 46.8083 7 10 251
1901070S10422 1901 15 SI MM NOT_NAMED 1901-03-16 06:00:00 NR -16.3000 46.3000 main 0 __________O___ -1 -16.3000 46.3000 7 10 252

About IBTrACS Database

This database is a web-friendly format of International Best Track Archive for Climate Stewardship (IBTrACS), a global best track data archive curated by NOAA dating back to 1842.

Updated: 2021-11-26